createdAt,value
2018-08-03T00:00:40.196Z,56.05
2018-08-03T00:01:40.113Z,56.25
2018-08-03T00:02:39.543Z,56.64
2018-08-03T00:03:42.380Z,56.32
2018-08-03T00:04:42.390Z,56.25
2018-08-03T00:05:40.452Z,55.47
2018-08-03T00:06:40.537Z,55.47
2018-08-03T00:07:40.563Z,55.96
2018-08-03T00:08:39.554Z,56.61
2018-08-03T00:09:40.253Z,56.61
2018-08-03T00:10:40.664Z,56.35
2018-08-03T00:11:39.582Z,56.32
2018-08-03T00:12:39.516Z,56.23
2018-08-03T00:13:39.464Z,56.71
2018-08-03T00:14:40.251Z,57.09
2018-08-03T00:15:39.473Z,57.09
2018-08-03T00:16:40.328Z,57.29
2018-08-03T00:17:40.224Z,57.00
2018-08-03T00:18:40.382Z,56.90
2018-08-03T00:19:41.399Z,56.81
2018-08-03T00:20:40.513Z,56.61
2018-08-03T00:21:40.753Z,57.09
2018-08-03T00:22:40.722Z,57.29
2018-08-03T00:23:40.387Z,57.58
2018-08-03T00:24:42.669Z,57.45
2018-08-03T00:25:40.928Z,57.84
2018-08-03T00:26:41.554Z,57.68
2018-08-03T00:27:41.643Z,57.09
2018-08-03T00:28:40.643Z,57.36
2018-08-03T00:29:40.600Z,57.39
2018-08-03T00:30:44.194Z,58.42
2018-08-03T00:31:39.607Z,57.94
2018-08-03T00:32:41.146Z,58.06
2018-08-03T00:33:39.814Z,57.94
2018-08-03T00:34:39.583Z,58.04
2018-08-03T00:35:40.360Z,57.94
2018-08-03T00:36:41.029Z,58.23
2018-08-03T00:37:39.535Z,58.62
2018-08-03T00:38:40.536Z,58.42
2018-08-03T00:39:40.255Z,58.42
2018-08-03T00:40:39.570Z,58.23
2018-08-03T00:41:39.547Z,58.52
2018-08-03T00:42:39.930Z,58.42
2018-08-03T00:43:39.561Z,58.42
2018-08-03T00:44:39.571Z,58.52
2018-08-03T00:45:40.321Z,58.33
2018-08-03T00:46:39.584Z,58.23
2018-08-03T00:47:39.620Z,58.42
2018-08-03T00:48:39.590Z,58.14
2018-08-03T00:49:39.582Z,58.39
2018-08-03T00:50:39.627Z,58.62
2018-08-03T00:51:40.604Z,58.78
2018-08-03T00:52:41.469Z,58.33
2018-08-03T00:53:41.317Z,58.23
2018-08-03T00:54:40.981Z,58.42
2018-08-03T00:55:40.420Z,59.17
2018-08-03T00:56:41.395Z,58.33
2018-08-03T00:57:40.216Z,58.78
2018-08-03T00:58:40.316Z,58.88
2018-08-03T00:59:40.439Z,58.59
2018-08-03T01:00:40.920Z,59.10
2018-08-03T01:01:40.308Z,59.56
2018-08-03T01:02:40.267Z,59.36
2018-08-03T01:03:40.415Z,59.17
2018-08-03T01:04:40.692Z,59.07
2018-08-03T01:05:40.701Z,59.36
2018-08-03T01:06:41.264Z,59.17
2018-08-03T01:07:40.901Z,59.27
2018-08-03T01:08:41.210Z,59.17
2018-08-03T01:09:40.327Z,59.17
2018-08-03T01:10:41.406Z,59.36
2018-08-03T01:11:40.693Z,58.98
2018-08-03T01:12:40.363Z,59.56
2018-08-03T01:13:41.252Z,59.07
2018-08-03T01:14:39.776Z,59.27
2018-08-03T01:15:40.361Z,59.36
2018-08-03T01:16:39.648Z,59.36
2018-08-03T01:17:41.248Z,59.46
2018-08-03T01:18:39.631Z,59.36
2018-08-03T01:19:40.315Z,59.66
2018-08-03T01:20:40.770Z,59.75
2018-08-03T01:21:40.321Z,59.36
2018-08-03T01:22:40.689Z,60.04
2018-08-03T01:23:40.423Z,59.36
2018-08-03T01:24:41.216Z,59.91
2018-08-03T01:25:40.426Z,58.98
2018-08-03T01:26:40.395Z,59.46
2018-08-03T01:27:40.749Z,59.17
2018-08-03T01:28:40.277Z,59.17
2018-08-03T01:29:40.741Z,59.66
2018-08-03T01:30:40.365Z,59.46
2018-08-03T01:31:40.724Z,59.56
2018-08-03T01:32:41.225Z,60.01
2018-08-03T01:33:41.220Z,59.72
2018-08-03T01:34:39.751Z,60.01
2018-08-03T01:35:40.924Z,59.53
2018-08-03T01:36:41.219Z,60.04
2018-08-03T01:37:40.974Z,59.72
2018-08-03T01:38:41.251Z,59.91
2018-08-03T01:39:40.911Z,59.82
2018-08-03T01:40:40.483Z,60.11
2018-08-03T01:41:40.807Z,59.63
2018-08-03T01:42:39.730Z,59.91
2018-08-03T01:43:40.419Z,60.40
2018-08-03T01:44:41.455Z,60.37
2018-08-03T01:45:40.443Z,60.78
2018-08-03T01:46:40.441Z,60.59
2018-08-03T01:47:40.463Z,60.50
2018-08-03T01:48:40.838Z,60.59
2018-08-03T01:49:40.883Z,60.40
2018-08-03T01:50:41.165Z,60.50
2018-08-03T01:51:40.763Z,60.50
2018-08-03T01:52:40.442Z,59.82
2018-08-03T01:53:40.401Z,60.59
2018-08-03T01:54:39.741Z,60.85
2018-08-03T01:55:40.469Z,61.24
2018-08-03T01:56:40.446Z,61.05
2018-08-03T01:57:40.916Z,60.75
2018-08-03T01:58:39.833Z,60.95
2018-08-03T01:59:41.336Z,60.40
2018-08-03T02:00:40.586Z,60.98
2018-08-03T02:01:40.579Z,61.08
2018-08-03T02:02:39.867Z,61.08
2018-08-03T02:03:40.862Z,61.33
2018-08-03T02:04:41.306Z,61.15
2018-08-03T02:05:40.883Z,60.88
2018-08-03T02:06:41.309Z,61.05
2018-08-03T02:07:40.528Z,60.95
2018-08-03T02:08:41.795Z,61.05
2018-08-03T02:09:40.878Z,61.15
2018-08-03T02:10:40.806Z,60.78
2018-08-03T02:11:40.910Z,61.08
2018-08-03T02:12:40.971Z,61.33
2018-08-03T02:13:40.065Z,61.33
2018-08-03T02:14:40.975Z,62.11
2018-08-03T02:15:40.946Z,61.63
2018-08-03T02:16:39.844Z,61.43
2018-08-03T02:17:41.166Z,61.27
2018-08-03T02:18:40.489Z,62.01
2018-08-03T02:19:39.822Z,61.53
2018-08-03T02:20:40.534Z,62.21
2018-08-03T02:21:40.835Z,62.21
2018-08-03T02:22:40.519Z,62.21
2018-08-03T02:23:40.530Z,62.11
2018-08-03T02:24:41.257Z,62.01
2018-08-03T02:25:40.836Z,62.11
2018-08-03T02:26:40.889Z,62.30
2018-08-03T02:27:40.983Z,62.50
2018-08-03T02:28:40.596Z,61.92
2018-08-03T02:29:40.584Z,62.59
2018-08-03T02:30:41.499Z,62.30
2018-08-03T02:31:40.883Z,62.40
2018-08-03T02:32:41.465Z,62.50
2018-08-03T02:33:40.594Z,62.30
2018-08-03T02:34:41.285Z,62.59
2018-08-03T02:35:40.939Z,62.40
2018-08-03T02:36:40.714Z,62.69
2018-08-03T02:37:40.938Z,62.85
2018-08-03T02:38:41.225Z,62.85
2018-08-03T02:39:39.865Z,63.82
2018-08-03T02:40:39.839Z,62.40
2018-08-03T02:41:40.899Z,62.98
2018-08-03T02:42:41.193Z,63.08
2018-08-03T02:43:40.834Z,63.08
2018-08-03T02:44:41.213Z,63.24
2018-08-03T02:45:40.994Z,63.34
2018-08-03T02:46:40.569Z,63.24
2018-08-03T02:47:41.335Z,63.63
2018-08-03T02:48:40.978Z,63.14
2018-08-03T02:49:40.999Z,62.76
2018-08-03T02:50:40.610Z,63.08
2018-08-03T02:51:40.993Z,63.56
2018-08-03T02:52:40.594Z,63.63
2018-08-03T02:53:40.952Z,62.95
2018-08-03T02:54:41.054Z,63.53
2018-08-03T02:55:40.987Z,63.43
2018-08-03T02:56:41.379Z,63.63
2018-08-03T02:57:39.976Z,64.50
2018-08-03T02:58:41.347Z,63.82
2018-08-03T02:59:40.626Z,64.59
2018-08-03T03:00:40.639Z,63.82
2018-08-03T03:01:40.939Z,64.37
2018-08-03T03:02:40.032Z,64.76
2018-08-03T03:03:39.908Z,64.21
2018-08-03T03:04:41.097Z,64.18
2018-08-03T03:05:41.129Z,64.47
2018-08-03T03:06:41.042Z,64.01
2018-08-03T03:07:41.794Z,64.31
2018-08-03T03:08:41.357Z,64.31
2018-08-03T03:09:41.349Z,64.31
2018-08-03T03:10:41.331Z,64.40
2018-08-03T03:11:41.076Z,65.14
2018-08-03T03:12:39.970Z,65.08
2018-08-03T03:13:40.658Z,64.50
2018-08-03T03:14:40.720Z,64.95
2018-08-03T03:15:39.958Z,64.95
2018-08-03T03:16:40.694Z,65.14
2018-08-03T03:17:41.326Z,65.05
2018-08-03T03:18:39.970Z,65.43
2018-08-03T03:19:41.488Z,65.14
2018-08-03T03:20:41.678Z,64.95
2018-08-03T03:21:40.658Z,65.34
2018-08-03T03:22:41.482Z,65.14
2018-08-03T03:23:40.656Z,65.24
2018-08-03T03:24:40.967Z,65.34
2018-08-03T03:25:40.634Z,66.01
2018-08-03T03:26:40.965Z,65.53
2018-08-03T03:27:39.964Z,65.63
2018-08-03T03:28:41.058Z,65.34
2018-08-03T03:29:40.968Z,64.85
2018-08-03T03:30:40.997Z,65.72
2018-08-03T03:31:40.035Z,65.72
2018-08-03T03:32:39.991Z,64.76
2018-08-03T03:33:41.242Z,65.14
2018-08-03T03:34:41.651Z,65.92
2018-08-03T03:35:40.683Z,65.43
2018-08-03T03:36:40.621Z,66.20
2018-08-03T03:37:39.957Z,66.27
2018-08-03T03:38:41.079Z,66.46
2018-08-03T03:39:40.704Z,66.40
2018-08-03T03:40:39.968Z,65.82
2018-08-03T03:41:41.044Z,65.43
2018-08-03T03:42:39.993Z,65.63
2018-08-03T03:43:41.505Z,65.63
2018-08-03T03:44:41.444Z,65.63
2018-08-03T03:45:40.057Z,66.11
2018-08-03T03:46:39.991Z,66.01
2018-08-03T03:47:39.991Z,66.20
2018-08-03T03:48:41.141Z,66.20
2018-08-03T03:49:41.175Z,66.30
2018-08-03T03:50:41.197Z,66.20
2018-08-03T03:51:41.306Z,65.82
2018-08-03T03:52:40.176Z,66.01
2018-08-03T03:53:41.094Z,67.14
2018-08-03T03:54:40.732Z,66.59
2018-08-03T03:55:41.113Z,67.08
2018-08-03T03:56:40.849Z,66.30
2018-08-03T03:57:41.490Z,66.36
2018-08-03T03:58:40.791Z,66.94
2018-08-03T03:59:40.796Z,67.14
2018-08-03T04:00:40.049Z,67.52
2018-08-03T04:01:41.815Z,66.85
2018-08-03T04:02:41.912Z,66.85
2018-08-03T04:03:41.021Z,67.14
2018-08-03T04:04:40.660Z,67.82
2018-08-03T04:05:41.043Z,67.52
2018-08-03T04:06:41.043Z,68.10
2018-08-03T04:07:41.245Z,67.43
2018-08-03T04:08:41.324Z,67.72
2018-08-03T04:09:40.744Z,68.20
2018-08-03T04:10:41.350Z,68.20
2018-08-03T04:11:41.110Z,67.91
2018-08-03T04:12:40.768Z,67.14
2018-08-03T04:13:41.225Z,67.91
2018-08-03T04:14:41.693Z,67.27
2018-08-03T04:15:41.603Z,67.04
2018-08-03T04:16:41.117Z,67.82
2018-08-03T04:17:41.316Z,67.24
2018-08-03T04:18:41.193Z,67.24
2018-08-03T04:19:41.492Z,67.14
2018-08-03T04:20:40.992Z,67.14
2018-08-03T04:21:41.149Z,67.52
2018-08-03T04:22:40.750Z,67.62
2018-08-03T04:23:41.489Z,67.24
2018-08-03T04:24:40.061Z,68.30
2018-08-03T04:25:40.165Z,68.20
2018-08-03T04:26:41.863Z,68.30
2018-08-03T04:27:41.203Z,68.10
2018-08-03T04:28:41.247Z,67.52
2018-08-03T04:29:41.269Z,67.43
2018-08-03T04:30:40.857Z,68.10
2018-08-03T04:31:40.883Z,68.30
2018-08-03T04:32:40.817Z,68.30
2018-08-03T04:33:41.280Z,68.20
2018-08-03T04:34:41.832Z,68.59
2018-08-03T04:35:41.539Z,68.49
2018-08-03T04:36:41.117Z,68.59
2018-08-03T04:37:41.425Z,68.88
2018-08-03T04:38:40.881Z,68.20
2018-08-03T04:39:43.835Z,68.10
2018-08-03T04:40:41.096Z,67.82
2018-08-03T04:41:40.070Z,68.01
2018-08-03T04:42:41.264Z,68.30
2018-08-03T04:43:41.251Z,68.20
2018-08-03T04:44:41.557Z,68.78
2018-08-03T04:45:41.511Z,68.20
2018-08-03T04:46:41.554Z,67.72
2018-08-03T04:47:41.550Z,67.72
2018-08-03T04:48:40.941Z,68.20
2018-08-03T04:49:40.721Z,68.10
2018-08-03T04:50:40.984Z,68.20
2018-08-03T04:51:40.936Z,68.49
2018-08-03T04:52:40.845Z,68.10
2018-08-03T04:53:41.406Z,68.20
2018-08-03T04:54:42.904Z,68.49
2018-08-03T04:55:41.828Z,68.78
2018-08-03T04:56:41.541Z,68.49
2018-08-03T04:57:40.764Z,68.30
2018-08-03T04:58:41.594Z,68.88
2018-08-03T04:59:41.166Z,69.07
2018-08-03T05:00:40.088Z,68.49
2018-08-03T05:01:41.114Z,68.78
2018-08-03T05:02:40.116Z,68.20
2018-08-03T05:03:40.945Z,67.91
2018-08-03T05:04:41.381Z,68.30
2018-08-03T05:05:41.238Z,68.88
2018-08-03T05:06:41.451Z,69.26
2018-08-03T05:07:42.037Z,68.98
2018-08-03T05:08:41.860Z,69.26
2018-08-03T05:09:40.853Z,68.98
2018-08-03T05:10:40.908Z,69.26
2018-08-03T05:11:41.266Z,69.56
2018-08-03T05:12:41.006Z,69.36
2018-08-03T05:13:41.387Z,69.56
2018-08-03T05:14:40.112Z,69.74
2018-08-03T05:15:41.548Z,69.94
2018-08-03T05:16:42.040Z,69.46
2018-08-03T05:17:41.129Z,69.74
2018-08-03T05:18:41.557Z,69.36
2018-08-03T05:19:40.133Z,69.65
2018-08-03T05:20:42.132Z,69.07
2018-08-03T05:21:41.245Z,68.91
2018-08-03T05:22:41.607Z,68.88
2018-08-03T05:23:40.136Z,68.78
2018-08-03T05:24:42.628Z,69.56
2018-08-03T05:25:41.235Z,69.17
2018-08-03T05:26:41.399Z,68.72
2018-08-03T05:27:41.237Z,68.62
2018-08-03T05:28:41.494Z,68.62
2018-08-03T05:29:41.648Z,68.82
2018-08-03T05:30:40.162Z,69.10
2018-08-03T05:31:40.163Z,69.74
2018-08-03T05:32:40.878Z,69.26
2018-08-03T05:33:41.356Z,69.01
2018-08-03T05:34:40.152Z,69.10
2018-08-03T05:35:41.578Z,69.01
2018-08-03T05:36:41.369Z,69.10
2018-08-03T05:37:40.188Z,68.91
2018-08-03T05:38:40.162Z,68.72
2018-08-03T05:39:40.145Z,67.94
2018-08-03T05:40:40.169Z,67.85
2018-08-03T05:41:40.247Z,67.56
2018-08-03T05:42:41.876Z,67.11
2018-08-03T05:43:40.179Z,67.01
2018-08-03T05:44:40.197Z,67.27
2018-08-03T05:45:40.181Z,67.27
2018-08-03T05:46:41.759Z,67.75
2018-08-03T05:47:40.945Z,67.40
2018-08-03T05:48:41.921Z,67.21
2018-08-03T05:49:41.576Z,67.75
2018-08-03T05:50:40.914Z,67.21
2018-08-03T05:51:41.412Z,67.30
2018-08-03T05:52:41.372Z,67.11
2018-08-03T05:53:40.913Z,67.88
2018-08-03T05:54:42.373Z,67.79
2018-08-03T05:55:41.573Z,67.79
2018-08-03T05:56:41.737Z,66.91
2018-08-03T05:57:41.251Z,67.30
2018-08-03T05:58:41.222Z,67.21
2018-08-03T05:59:41.516Z,67.01
2018-08-03T06:00:41.362Z,67.11
2018-08-03T06:01:41.564Z,67.79
2018-08-03T06:02:41.577Z,67.49
2018-08-03T06:03:41.589Z,67.79
2018-08-03T06:04:41.822Z,67.79
2018-08-03T06:05:41.544Z,68.56
2018-08-03T06:06:42.072Z,67.63
2018-08-03T06:07:42.029Z,67.82
2018-08-03T06:08:42.388Z,67.72
2018-08-03T06:09:42.435Z,67.82
2018-08-03T06:10:42.549Z,67.91
2018-08-03T06:11:42.052Z,67.63
2018-08-03T06:12:41.583Z,67.82
2018-08-03T06:13:41.570Z,67.82
2018-08-03T06:14:41.899Z,67.53
2018-08-03T06:15:41.931Z,67.53
2018-08-03T06:16:42.368Z,67.14
2018-08-03T06:17:41.328Z,67.82
2018-08-03T06:18:41.916Z,68.01
2018-08-03T06:19:42.117Z,68.79
2018-08-03T06:20:42.307Z,68.21
2018-08-03T06:21:41.863Z,68.21
2018-08-03T06:22:42.375Z,69.27
2018-08-03T06:23:41.902Z,69.46
2018-08-03T06:24:41.845Z,68.15
2018-08-03T06:25:43.728Z,68.63
2018-08-03T06:26:42.378Z,69.08
2018-08-03T06:27:42.391Z,69.40
2018-08-03T06:28:41.601Z,70.08
2018-08-03T06:29:41.944Z,69.89
2018-08-03T06:30:41.845Z,68.98
2018-08-03T06:31:41.912Z,69.17
2018-08-03T06:32:44.128Z,69.79
2018-08-03T06:33:41.923Z,68.91
2018-08-03T06:34:42.395Z,69.79
2018-08-03T06:35:42.118Z,69.21
2018-08-03T06:36:42.506Z,68.53
2018-08-03T06:37:42.099Z,69.98
2018-08-03T06:38:41.538Z,69.40
2018-08-03T06:39:42.533Z,69.01
2018-08-03T06:40:41.796Z,68.73
2018-08-03T06:41:43.751Z,69.50
2018-08-03T06:42:41.886Z,72.11
2018-08-03T06:43:40.507Z,72.21
2018-08-03T06:44:40.350Z,69.89
2018-08-03T06:45:41.603Z,70.27
2018-08-03T06:46:42.043Z,69.79
2018-08-03T06:47:42.345Z,69.63
2018-08-03T06:48:41.407Z,69.63
2018-08-03T06:49:41.225Z,68.85
2018-08-03T06:50:40.369Z,69.43
2018-08-03T06:51:42.120Z,70.21
2018-08-03T06:52:42.401Z,71.66
2018-08-03T06:53:40.344Z,71.47
2018-08-03T06:54:42.491Z,71.66
2018-08-03T06:55:40.799Z,71.47
2018-08-03T06:56:41.855Z,70.40
2018-08-03T06:57:41.408Z,70.31
2018-08-03T06:58:40.442Z,70.89
2018-08-03T06:59:40.380Z,70.70
2018-08-03T07:00:40.324Z,70.01
2018-08-03T07:01:40.318Z,69.53
2018-08-03T07:02:40.514Z,69.53
2018-08-03T07:03:40.343Z,70.11
2018-08-03T07:04:40.337Z,69.47
2018-08-03T07:05:40.383Z,69.76
2018-08-03T07:06:40.484Z,69.95
2018-08-03T07:07:41.416Z,70.05
2018-08-03T07:08:41.154Z,70.54
2018-08-03T07:09:40.708Z,70.25
2018-08-03T07:10:40.352Z,70.92
2018-08-03T07:11:40.351Z,69.67
2018-08-03T07:12:40.371Z,70.25
2018-08-03T07:13:40.394Z,69.76
2018-08-03T07:14:40.463Z,69.21
2018-08-03T07:15:40.364Z,68.54
2018-08-03T07:16:40.373Z,68.89
2018-08-03T07:17:40.362Z,68.12
2018-08-03T07:19:01.378Z,67.95
2018-08-03T07:19:42.024Z,68.44
2018-08-03T07:20:40.424Z,68.44
2018-08-03T07:21:40.377Z,68.54
2018-08-03T07:22:40.367Z,70.18
2018-08-03T07:23:40.391Z,69.79
2018-08-03T07:24:40.388Z,69.50
2018-08-03T07:25:40.433Z,69.41
2018-08-03T07:26:40.389Z,68.92
2018-08-03T07:27:40.397Z,69.12
2018-08-03T07:28:40.432Z,70.09
2018-08-03T07:29:40.383Z,68.86
2018-08-03T07:30:40.407Z,68.37
2018-08-03T07:31:40.415Z,68.18
2018-08-03T07:32:40.452Z,67.50
2018-08-03T07:33:40.765Z,67.69
2018-08-03T07:34:40.444Z,67.69
2018-08-03T07:35:40.423Z,67.60
2018-08-03T07:36:41.505Z,67.79
2018-08-03T07:37:40.407Z,67.21
2018-08-03T07:38:40.432Z,67.31
2018-08-03T07:39:40.440Z,66.82
2018-08-03T07:40:40.424Z,67.05
2018-08-03T07:41:40.425Z,67.89
2018-08-03T07:42:40.418Z,66.82
2018-08-03T07:43:40.438Z,67.50
2018-08-03T07:44:40.456Z,66.82
2018-08-03T07:45:40.436Z,66.76
2018-08-03T07:46:40.434Z,66.66
2018-08-03T07:47:40.428Z,66.66
2018-08-03T07:48:40.433Z,66.56
2018-08-03T07:49:40.452Z,66.76
2018-08-03T07:50:40.459Z,66.56
2018-08-03T07:51:40.439Z,66.21
2018-08-03T07:52:40.474Z,65.72
2018-08-03T07:53:40.438Z,66.02
2018-08-03T07:54:40.474Z,65.82
2018-08-03T07:55:40.506Z,66.02
2018-08-03T07:56:40.460Z,65.63
2018-08-03T07:57:41.653Z,66.30
2018-08-03T07:58:40.489Z,66.11
2018-08-03T07:59:40.490Z,66.21
2018-08-03T08:00:40.481Z,65.33
2018-08-03T08:01:40.476Z,65.92
2018-08-03T08:02:40.475Z,66.40
2018-08-03T08:03:40.472Z,66.99
2018-08-03T08:04:40.530Z,66.40
2018-08-03T08:05:42.275Z,65.85
2018-08-03T08:06:40.496Z,66.63
2018-08-03T08:07:40.625Z,67.02
2018-08-03T08:08:40.517Z,66.92
2018-08-03T08:09:40.569Z,66.82
2018-08-03T08:10:40.731Z,66.53
2018-08-03T08:11:40.508Z,67.02
2018-08-03T08:12:40.505Z,65.85
2018-08-03T08:13:40.561Z,66.17
2018-08-03T08:14:40.523Z,65.79
2018-08-03T08:15:40.557Z,66.08
2018-08-03T08:16:40.551Z,64.91
2018-08-03T08:17:40.575Z,65.40
2018-08-03T08:18:40.551Z,65.59
2018-08-03T08:19:40.587Z,65.30
2018-08-03T08:20:40.571Z,66.37
2018-08-03T08:21:40.579Z,66.76
2018-08-03T08:22:40.574Z,66.37
2018-08-03T08:23:40.593Z,66.08
2018-08-03T08:24:40.563Z,65.89
2018-08-03T08:25:40.548Z,68.22
2018-08-03T08:26:40.610Z,69.67
2018-08-03T08:27:40.604Z,68.41
2018-08-03T08:28:40.577Z,67.05
2018-08-03T08:29:40.622Z,66.21
2018-08-03T08:30:40.575Z,67.96
2018-08-03T08:31:40.593Z,66.21
2018-08-03T08:32:40.610Z,65.82
2018-08-03T08:33:40.613Z,65.43
2018-08-03T08:34:40.600Z,66.89
2018-08-03T08:35:40.603Z,65.53
2018-08-03T08:36:40.623Z,65.23
2018-08-03T08:37:40.632Z,65.14
2018-08-03T08:38:40.669Z,66.40
2018-08-03T08:39:40.640Z,65.66
2018-08-03T08:40:40.633Z,65.37
2018-08-03T08:41:40.635Z,66.34
2018-08-03T08:42:40.727Z,65.37
2018-08-03T08:43:40.682Z,66.02
2018-08-03T08:44:40.662Z,65.37
2018-08-03T08:45:40.621Z,67.08
2018-08-03T08:46:40.653Z,67.38
2018-08-03T08:47:40.649Z,65.37
2018-08-03T08:48:40.669Z,66.44
2018-08-03T08:49:40.878Z,65.46
2018-08-03T08:50:40.765Z,65.46
2018-08-03T08:51:40.679Z,66.11
2018-08-03T08:52:40.670Z,66.05
2018-08-03T08:53:40.682Z,65.37
2018-08-03T08:54:40.744Z,65.56
2018-08-03T08:55:40.681Z,65.37
2018-08-03T08:56:40.672Z,65.08
2018-08-03T08:57:40.691Z,65.27
2018-08-03T08:58:40.676Z,65.95
2018-08-03T08:59:41.782Z,64.23
2018-08-03T09:00:40.686Z,63.26
2018-08-03T09:01:40.699Z,63.26
2018-08-03T09:02:40.725Z,63.55
2018-08-03T09:03:40.686Z,63.35
2018-08-03T09:04:40.696Z,63.48
2018-08-03T09:05:40.739Z,63.39
2018-08-03T09:06:40.681Z,62.90
2018-08-03T09:07:40.790Z,63.06
2018-08-03T09:08:40.701Z,62.90
2018-08-03T09:09:40.698Z,62.12
2018-08-03T09:10:40.705Z,62.70
2018-08-03T09:11:42.671Z,62.90
2018-08-03T09:12:40.896Z,64.62
2018-08-03T09:13:40.986Z,63.75
2018-08-03T09:14:40.753Z,64.52
2018-08-03T09:15:41.587Z,65.01
2018-08-03T09:16:40.751Z,62.51
2018-08-03T09:17:40.771Z,61.54
2018-08-03T09:18:40.864Z,61.54
2018-08-03T09:19:40.781Z,62.90
2018-08-03T09:20:40.994Z,63.48
2018-08-03T09:21:40.843Z,62.35
2018-08-03T09:22:41.140Z,62.25
2018-08-03T09:23:40.779Z,62.73
2018-08-03T09:24:40.833Z,63.42
2018-08-03T09:25:40.824Z,62.44
2018-08-03T09:26:40.874Z,60.82
2018-08-03T09:27:41.413Z,60.10
2018-08-03T09:28:40.776Z,60.39
2018-08-03T09:29:40.779Z,60.98
2018-08-03T09:30:40.787Z,60.98
2018-08-03T09:31:40.773Z,61.37
2018-08-03T09:32:40.803Z,61.47
2018-08-03T09:33:41.420Z,62.83
2018-08-03T09:34:40.900Z,60.82
2018-08-03T09:35:40.943Z,59.94
2018-08-03T09:36:40.840Z,59.84
2018-08-03T09:37:40.872Z,59.55
2018-08-03T09:38:40.842Z,56.82
2018-08-03T09:39:40.885Z,56.85
2018-08-03T09:40:40.841Z,58.31
2018-08-03T09:41:41.007Z,56.46
2018-08-03T09:42:40.887Z,56.75
2018-08-03T09:43:40.982Z,58.31
2018-08-03T09:44:40.869Z,57.53
2018-08-03T09:45:40.840Z,56.75
2018-08-03T09:46:40.880Z,56.36
2018-08-03T09:47:41.071Z,55.97
2018-08-03T09:48:40.875Z,55.09
2018-08-03T09:49:40.877Z,58.22
2018-08-03T09:50:40.937Z,56.95
2018-08-03T09:51:40.884Z,59.16
2018-08-03T09:52:40.879Z,59.84
2018-08-03T09:53:40.869Z,62.38
2018-08-03T09:54:40.870Z,58.80
2018-08-03T09:55:41.047Z,57.43
2018-08-03T09:56:40.910Z,55.97
2018-08-03T09:57:41.189Z,53.46
2018-08-03T09:58:41.029Z,53.36
2018-08-03T09:59:41.003Z,55.02
2018-08-03T10:00:41.022Z,55.58
2018-08-03T10:01:41.098Z,54.63
2018-08-03T10:02:55.744Z,53.95
2018-08-03T10:03:40.923Z,53.68
2018-08-03T10:04:40.931Z,53.68
2018-08-03T10:05:40.912Z,53.19
2018-08-03T10:06:40.990Z,53.58
2018-08-03T10:07:41.033Z,52.90
2018-08-03T10:08:41.002Z,53.56
2018-08-03T10:09:40.945Z,53.29
2018-08-03T10:10:40.989Z,52.70
2018-08-03T10:11:40.994Z,53.58
2018-08-03T10:12:41.030Z,53.58
2018-08-03T10:13:41.042Z,53.88
2018-08-03T10:14:41.028Z,53.09
2018-08-03T10:15:41.061Z,52.70
2018-08-03T10:16:41.222Z,51.73
2018-08-03T10:17:40.994Z,51.53
2018-08-03T10:18:41.000Z,51.24
2018-08-03T10:19:40.994Z,51.46
2018-08-03T10:20:41.009Z,51.07
2018-08-03T10:21:41.032Z,51.46
2018-08-03T10:22:41.011Z,51.92
2018-08-03T10:23:41.038Z,52.41
2018-08-03T10:24:41.070Z,51.70
2018-08-03T10:25:41.040Z,52.12
2018-08-03T10:26:41.082Z,52.90
2018-08-03T10:27:42.107Z,51.82
2018-08-03T10:28:42.612Z,49.78
2018-08-03T10:29:42.279Z,48.51
2018-08-03T10:30:42.722Z,49.10
2018-08-03T10:31:42.798Z,48.93
2018-08-03T10:32:43.026Z,49.22
2018-08-03T10:33:44.196Z,50.07
2018-08-03T10:34:42.581Z,50.16
2018-08-03T10:35:42.707Z,48.34
2018-08-03T10:36:44.828Z,49.32
2018-08-03T10:37:42.237Z,49.32
2018-08-03T10:38:42.549Z,49.71
2018-08-03T10:39:43.129Z,50.59
2018-08-03T10:40:41.205Z,51.56
2018-08-03T10:41:41.134Z,49.90
2018-08-03T10:42:42.280Z,50.49
2018-08-03T10:43:42.588Z,49.02
2018-08-03T10:44:41.144Z,51.07
2018-08-03T10:45:41.190Z,50.78
2018-08-03T10:46:41.873Z,49.90
2018-08-03T10:47:41.135Z,47.77
2018-08-03T10:48:45.211Z,48.07
2018-08-03T10:49:42.820Z,46.72
2018-08-03T10:50:41.154Z,51.12
2018-08-03T10:51:41.157Z,46.04
2018-08-03T10:52:41.140Z,44.48
2018-08-03T10:53:41.179Z,44.09
2018-08-03T10:54:41.129Z,43.10
2018-08-03T10:55:44.681Z,43.59
2018-08-03T10:56:41.148Z,44.57
2018-08-03T10:57:41.275Z,44.30
2018-08-03T10:58:41.459Z,42.76
2018-08-03T10:59:41.233Z,43.91
2018-08-03T11:00:45.155Z,43.23
2018-08-03T11:02:08.830Z,43.05
2018-08-03T11:02:41.214Z,47.24
2018-08-03T11:03:41.272Z,44.42
2018-08-03T11:04:41.906Z,43.27
2018-08-03T11:05:42.386Z,42.78
2018-08-03T11:06:41.321Z,42.68
2018-08-03T11:07:41.226Z,42.38
2018-08-03T11:08:43.155Z,42.78
2018-08-03T11:09:42.720Z,43.85
2018-08-03T11:10:42.055Z,44.34
2018-08-03T11:11:42.558Z,44.93
2018-08-03T11:12:42.363Z,45.52
2018-08-03T11:13:43.851Z,46.77
2018-08-03T11:14:41.257Z,46.18
2018-08-03T11:15:42.752Z,45.69
2018-08-03T11:16:42.261Z,44.44
2018-08-03T11:17:43.204Z,45.52
2018-08-03T11:18:42.116Z,45.62
2018-08-03T11:19:42.681Z,44.83
2018-08-03T11:20:42.971Z,43.76
2018-08-03T11:21:42.364Z,46.98
2018-08-03T11:22:42.419Z,46.30
2018-08-03T11:23:42.321Z,44.54
2018-08-03T11:24:41.311Z,44.73
2018-08-03T11:25:41.296Z,45.81
2018-08-03T11:26:42.988Z,42.78
2018-08-03T11:27:42.690Z,44.95
2018-08-03T11:28:43.186Z,42.50
2018-08-03T11:29:42.743Z,42.31
2018-08-03T11:30:43.696Z,41.15
2018-08-03T11:31:42.148Z,41.35
2018-08-03T11:32:47.824Z,42.15
2018-08-03T11:33:42.930Z,39.80
2018-08-03T11:34:45.155Z,39.72
2018-08-03T11:35:42.045Z,38.93
2018-08-03T11:36:57.731Z,38.84
2018-08-03T11:37:41.365Z,38.54
2018-08-03T11:38:41.412Z,39.72
2018-08-03T11:39:41.705Z,38.76
2018-08-03T11:40:43.044Z,39.15
2018-08-03T11:41:42.664Z,39.72
2018-08-03T11:42:43.194Z,39.72
2018-08-03T11:43:42.218Z,39.94
2018-08-03T11:44:43.563Z,41.29
2018-08-03T11:45:43.154Z,39.45
2018-08-03T11:46:41.413Z,39.45
2018-08-03T11:48:42.431Z,37.78
2018-08-03T11:49:43.292Z,38.96
2018-08-03T11:50:42.455Z,37.78
2018-08-03T11:51:43.037Z,38.17
2018-08-03T11:52:43.038Z,38.27
2018-08-03T11:53:42.599Z,37.88
2018-08-03T11:54:43.001Z,37.01
2018-08-03T11:56:42.471Z,37.03
2018-08-03T11:57:42.592Z,36.24
2018-08-03T11:58:41.502Z,35.85
2018-08-03T11:59:42.617Z,35.38
2018-08-03T12:00:43.629Z,35.67
2018-08-03T12:01:43.268Z,35.38
2018-08-03T12:02:42.754Z,35.18
2018-08-03T12:03:43.139Z,34.22
2018-08-03T12:04:43.001Z,36.18
2018-08-03T12:05:42.718Z,35.30
2018-08-03T12:06:42.634Z,36.28
2018-08-03T12:07:43.107Z,35.20
2018-08-03T12:08:45.292Z,35.00
2018-08-03T12:09:42.766Z,34.82
2018-08-03T12:10:41.581Z,34.54
2018-08-03T12:11:43.123Z,34.64
2018-08-03T12:12:43.202Z,35.13
2018-08-03T12:13:43.209Z,34.66
2018-08-03T12:14:42.345Z,34.27
2018-08-03T12:15:43.288Z,33.38
2018-08-03T12:16:42.762Z,32.87
2018-08-03T12:17:49.815Z,33.97
2018-08-03T12:19:06.051Z,33.67
2018-08-03T12:19:41.722Z,33.38
2018-08-03T12:20:42.714Z,33.59
2018-08-03T12:21:45.217Z,33.10
2018-08-03T12:22:41.686Z,33.00
2018-08-03T12:23:42.895Z,32.82
2018-08-03T12:24:42.803Z,32.82
2018-08-03T12:25:43.518Z,31.93
2018-08-03T12:26:43.632Z,32.34
2018-08-03T12:27:42.797Z,31.26
2018-08-03T12:28:43.078Z,31.95
2018-08-03T12:29:45.215Z,32.16
2018-08-03T12:30:43.245Z,31.76
2018-08-03T12:31:42.579Z,30.10
2018-08-03T12:32:41.816Z,31.10
2018-08-03T12:33:42.897Z,31.70
2018-08-03T12:34:43.291Z,31.50
2018-08-03T12:35:42.636Z,29.80
2018-08-03T12:36:44.071Z,29.72
2018-08-03T12:37:43.113Z,29.64
2018-08-03T12:38:43.033Z,29.44
2018-08-03T12:39:42.955Z,28.65
2018-08-03T12:40:42.076Z,29.24
2018-08-03T12:41:44.110Z,28.18
2018-08-03T12:42:43.972Z,28.66
2018-08-03T12:43:43.572Z,27.79
2018-08-03T12:44:42.391Z,27.59
2018-08-03T12:45:42.119Z,28.31
2018-08-03T12:46:43.219Z,27.92
2018-08-03T12:47:42.908Z,27.15
2018-08-03T12:48:42.224Z,27.44
2018-08-03T12:49:42.833Z,26.75
2018-08-03T12:50:42.953Z,25.97
2018-08-03T12:51:42.240Z,26.08
2018-08-03T12:52:43.456Z,26.29
2018-08-03T12:53:42.716Z,25.59
2018-08-03T12:54:44.486Z,26.01